Bradford, ME (04410)

9:20 PM EDT on September 30, 2014 (GMT -0400)
KMEGARLA2 | Change Station
CLOSE
Current Station
Personal Weather Station
Location: Garland, ME
Elevation: 410 ft
Nearby Weather Stations

Elev 410 ft 45.02 °N, 69.13 °W | Updated 34 seconds ago

Overcast
Overcast
55.2 °F
Feels Like 55.2 °F
N
1.0
Wind Variable Wind from ENE
Gusts 5.0 mph

Today
High -- | Low -- °F
--% Chance of Precip.
Yesterday
High -- | Low -- °F
Precip. -- in
6:32 AM 6:18 PM
Waxing Crescent, 42% visible
Pressure 30.08 in
Visibility 10.0 miles
Clouds Overcast 2400 ft
Dew Point 52 °F
Humidity 88%
Rainfall 0.00 in
Snow Depth Not available.
UV 0 out of 12
Pollen .30 out of 12
Air Quality Not available.
Flu Activity Not available.
METAR KBGR 010053Z 06006KT 10SM OVC024 14/11 A3008 RMK AO2 SLP185 T01440106

More Conditions Fewer Conditions

Pressure 30.08 in
Visibility 10.0 miles
Clouds Overcast 2400 ft
Dew Point 52 °F
Humidity 88%
Rainfall 0.00 in
Snow Depth Not available.
UV 0 out of 12
Pollen .30 out of 12
Air Quality Not available.
Flu Activity Not available.
METAR KBGR 010053Z 06006KT 10SM OVC024 14/11 A3008 RMK AO2 SLP185 T01440106

More Conditions Fewer Conditions

10-Day Weather Forecast

Almanac

Astronomy

Sep. 30, 2014 Rise Set
Actual Time 6:32 AM EDT 6:18 PM EDT
Civil Twilight 6:03 AM EDT 6:47 PM EDT
Nautical Twilight 5:28 AM EDT 7:21 PM EDT
Astronomical Twilight 4:54 AM EDT 7:55 PM EDT
Moon 12:49 PM EDT (9/30) 10:32 PM EDT (9/30)
Length of Visible Light 12h 44m
Length of Day
11h 45m
Tomorrow will be 3m 7s shorter.
Waxing Crescent, 42% of the Moon is Illuminated
Today
Waxing Crescent
Oct 1
First Quarter
Oct 8
Full
Oct 15
Last Quarter
Oct 23
New

Today's Extremes

State Highs State Lows

Community

WunderPhotos

Upload Photos

1,757,815 photos uploaded!

Nearby

Air Quality

  Air Quality AQ Index Pollutant
Tuesday Good
OZONE
Tuesday Good
PM2.5
Wednesday Good
OZONE
Wednesday Good
PM2.5
Thursday Good
OZONE
Thursday Good
PM2.5
Friday Good
OZONE
Friday Good
PM2.5
Saturday Good
OZONE
Saturday Good
PM2.5

Snow Depth

Station Depth Elevation
No new snow has been reported.

Earthquake Activity

City Distance Mag. Time & Date
No recent earthquake activity has been reported nearby.
Minimum magnitude displayed is 2.5.

Coastal Water Temperatures

Place Temperature
Bar Harbor, ME 55.9 °F
Portland, ME 57.9 °F

Nearby Weather Stations